sensor_id;sensor_type;location;lat;lon;timestamp;temperature;humidity
63017;DHT22;50274;45.640;11.756;2023-05-10T00:02:07;17.90;51.50
63017;DHT22;50274;45.640;11.756;2023-05-10T00:04:33;17.80;51.60
63017;DHT22;50274;45.640;11.756;2023-05-10T00:06:59;17.80;51.60
63017;DHT22;50274;45.640;11.756;2023-05-10T00:09:25;17.80;51.80
63017;DHT22;50274;45.640;11.756;2023-05-10T00:11:51;17.90;51.40
63017;DHT22;50274;45.640;11.756;2023-05-10T00:14:16;17.80;51.60
63017;DHT22;50274;45.640;11.756;2023-05-10T00:16:42;17.80;51.70
63017;DHT22;50274;45.640;11.756;2023-05-10T00:19:08;17.80;51.40
63017;DHT22;50274;45.640;11.756;2023-05-10T00:21:34;17.80;51.40
63017;DHT22;50274;45.640;11.756;2023-05-10T00:24:00;17.80;51.50
63017;DHT22;50274;45.640;11.756;2023-05-10T00:26:26;17.80;51.50
63017;DHT22;50274;45.640;11.756;2023-05-10T00:28:51;17.80;51.20
63017;DHT22;50274;45.640;11.756;2023-05-10T00:31:17;17.80;51.20
63017;DHT22;50274;45.640;11.756;2023-05-10T00:33:43;17.80;51.70
63017;DHT22;50274;45.640;11.756;2023-05-10T00:36:09;17.70;51.90
63017;DHT22;50274;45.640;11.756;2023-05-10T00:38:35;17.70;52.20
63017;DHT22;50274;45.640;11.756;2023-05-10T00:41:00;17.70;52.50
63017;DHT22;50274;45.640;11.756;2023-05-10T00:43:26;17.60;52.80
63017;DHT22;50274;45.640;11.756;2023-05-10T00:45:52;17.70;52.70
63017;DHT22;50274;45.640;11.756;2023-05-10T00:48:18;17.70;52.60
63017;DHT22;50274;45.640;11.756;2023-05-10T00:50:45;17.60;53.00
63017;DHT22;50274;45.640;11.756;2023-05-10T00:53:12;17.60;53.40
63017;DHT22;50274;45.640;11.756;2023-05-10T00:55:38;17.60;53.90
63017;DHT22;50274;45.640;11.756;2023-05-10T00:58:04;17.50;54.10
63017;DHT22;50274;45.640;11.756;2023-05-10T01:00:30;17.50;54.30
63017;DHT22;50274;45.640;11.756;2023-05-10T01:02:58;17.50;54.80
63017;DHT22;50274;45.640;11.756;2023-05-10T01:05:24;17.50;54.90
63017;DHT22;50274;45.640;11.756;2023-05-10T01:07:50;17.50;55.10
63017;DHT22;50274;45.640;11.756;2023-05-10T01:10:16;17.40;55.30
63017;DHT22;50274;45.640;11.756;2023-05-10T01:12:43;17.40;55.50
63017;DHT22;50274;45.640;11.756;2023-05-10T01:15:11;17.40;55.70
63017;DHT22;50274;45.640;11.756;2023-05-10T01:17:40;17.40;56.10
63017;DHT22;50274;45.640;11.756;2023-05-10T01:20:07;17.40;56.20
63017;DHT22;50274;45.640;11.756;2023-05-10T01:31:08;17.30;56.80
63017;DHT22;50274;45.640;11.756;2023-05-10T01:39:05;17.30;57.40
63017;DHT22;50274;45.640;11.756;2023-05-10T01:41:59;17.30;57.70
63017;DHT22;50274;45.640;11.756;2023-05-10T01:47:37;17.30;58.00
63017;DHT22;50274;45.640;11.756;2023-05-10T01:50:18;17.30;58.10
63017;DHT22;50274;45.640;11.756;2023-05-10T01:52:55;17.20;58.20
63017;DHT22;50274;45.640;11.756;2023-05-10T01:55:25;17.20;58.40
63017;DHT22;50274;45.640;11.756;2023-05-10T01:58:06;17.10;58.50
63017;DHT22;50274;45.640;11.756;2023-05-10T02:00:32;17.10;58.50
63017;DHT22;50274;45.640;11.756;2023-05-10T02:03:00;17.10;58.60
63017;DHT22;50274;45.640;11.756;2023-05-10T02:05:30;17.10;58.70
63017;DHT22;50274;45.640;11.756;2023-05-10T02:07:58;17.10;58.70
63017;DHT22;50274;45.640;11.756;2023-05-10T02:10:27;17.10;58.80
63017;DHT22;50274;45.640;11.756;2023-05-10T02:12:53;17.10;58.80
63017;DHT22;50274;45.640;11.756;2023-05-10T02:15:23;17.10;58.90
63017;DHT22;50274;45.640;11.756;2023-05-10T02:17:50;17.10;59.00
63017;DHT22;50274;45.640;11.756;2023-05-10T02:20:19;17.10;59.00
63017;DHT22;50274;45.640;11.756;2023-05-10T02:22:47;17.10;59.10
63017;DHT22;50274;45.640;11.756;2023-05-10T02:25:14;17.10;59.10
63017;DHT22;50274;45.640;11.756;2023-05-10T02:27:42;17.10;59.20
63017;DHT22;50274;45.640;11.756;2023-05-10T02:30:09;17.10;59.20
63017;DHT22;50274;45.640;11.756;2023-05-10T02:32:36;17.00;59.30
63017;DHT22;50274;45.640;11.756;2023-05-10T02:35:04;17.10;59.40
63017;DHT22;50274;45.640;11.756;2023-05-10T02:37:30;17.00;59.40
63017;DHT22;50274;45.640;11.756;2023-05-10T02:39:58;17.00;59.40
63017;DHT22;50274;45.640;11.756;2023-05-10T02:42:29;17.00;59.40
63017;DHT22;50274;45.640;11.756;2023-05-10T02:45:01;17.00;59.40
63017;DHT22;50274;45.640;11.756;2023-05-10T02:47:28;17.00;59.10
63017;DHT22;50274;45.640;11.756;2023-05-10T02:49:55;17.00;58.90
63017;DHT22;50274;45.640;11.756;2023-05-10T02:52:27;17.00;58.50
63017;DHT22;50274;45.640;11.756;2023-05-10T02:55:00;16.90;58.60
63017;DHT22;50274;45.640;11.756;2023-05-10T02:57:29;16.80;58.60
63017;DHT22;50274;45.640;11.756;2023-05-10T02:59:57;16.90;58.40
63017;DHT22;50274;45.640;11.756;2023-05-10T03:02:23;16.80;57.80
63017;DHT22;50274;45.640;11.756;2023-05-10T03:04:49;16.80;57.60
63017;DHT22;50274;45.640;11.756;2023-05-10T03:07:15;16.80;57.60
63017;DHT22;50274;45.640;11.756;2023-05-10T03:09:42;16.80;57.40
63017;DHT22;50274;45.640;11.756;2023-05-10T03:12:41;16.80;57.50
63017;DHT22;50274;45.640;11.756;2023-05-10T03:15:33;16.80;57.50
63017;DHT22;50274;45.640;11.756;2023-05-10T03:18:09;16.70;57.60
63017;DHT22;50274;45.640;11.756;2023-05-10T03:20:41;16.70;57.70
63017;DHT22;50274;45.640;11.756;2023-05-10T03:23:34;16.70;57.80
63017;DHT22;50274;45.640;11.756;2023-05-10T03:26:01;16.70;58.00
63017;DHT22;50274;45.640;11.756;2023-05-10T03:28:27;16.70;58.00
63017;DHT22;50274;45.640;11.756;2023-05-10T03:30:54;16.70;58.00
63017;DHT22;50274;45.640;11.756;2023-05-10T03:33:20;16.70;58.20
63017;DHT22;50274;45.640;11.756;2023-05-10T03:35:49;16.60;58.20
63017;DHT22;50274;45.640;11.756;2023-05-10T03:38:15;16.60;58.50
63017;DHT22;50274;45.640;11.756;2023-05-10T03:40:41;16.60;58.50
63017;DHT22;50274;45.640;11.756;2023-05-10T03:43:06;16.60;58.60
63017;DHT22;50274;45.640;11.756;2023-05-10T03:45:32;16.60;58.60
63017;DHT22;50274;45.640;11.756;2023-05-10T03:47:58;16.60;58.70
63017;DHT22;50274;45.640;11.756;2023-05-10T03:50:24;16.50;58.90
63017;DHT22;50274;45.640;11.756;2023-05-10T03:52:50;16.60;59.00
63017;DHT22;50274;45.640;11.756;2023-05-10T03:55:16;16.60;58.90
63017;DHT22;50274;45.640;11.756;2023-05-10T03:57:42;16.50;58.80
63017;DHT22;50274;45.640;11.756;2023-05-10T04:00:08;16.50;58.80
63017;DHT22;50274;45.640;11.756;2023-05-10T04:02:35;16.50;58.80
63017;DHT22;50274;45.640;11.756;2023-05-10T04:05:01;16.40;58.80
63017;DHT22;50274;45.640;11.756;2023-05-10T04:07:28;16.50;58.90
63017;DHT22;50274;45.640;11.756;2023-05-10T04:09:54;16.40;58.90
63017;DHT22;50274;45.640;11.756;2023-05-10T04:12:20;16.40;59.00
63017;DHT22;50274;45.640;11.756;2023-05-10T04:14:46;16.40;59.10
63017;DHT22;50274;45.640;11.756;2023-05-10T04:17:12;16.40;59.20
63017;DHT22;50274;45.640;11.756;2023-05-10T04:19:37;16.30;59.30
63017;DHT22;50274;45.640;11.756;2023-05-10T04:22:04;16.40;59.40
63017;DHT22;50274;45.640;11.756;2023-05-10T04:24:30;16.30;59.30
63017;DHT22;50274;45.640;11.756;2023-05-10T04:26:56;16.30;59.30
63017;DHT22;50274;45.640;11.756;2023-05-10T04:29:22;16.30;59.40
63017;DHT22;50274;45.640;11.756;2023-05-10T04:31:47;16.30;59.40
63017;DHT22;50274;45.640;11.756;2023-05-10T04:34:14;16.30;59.50
63017;DHT22;50274;45.640;11.756;2023-05-10T04:36:40;16.30;59.60
63017;DHT22;50274;45.640;11.756;2023-05-10T04:39:05;16.30;59.70
63017;DHT22;50274;45.640;11.756;2023-05-10T04:41:31;16.30;59.80
63017;DHT22;50274;45.640;11.756;2023-05-10T04:43:57;16.30;59.80
63017;DHT22;50274;45.640;11.756;2023-05-10T04:46:23;16.30;59.80
63017;DHT22;50274;45.640;11.756;2023-05-10T04:48:49;16.30;59.90
63017;DHT22;50274;45.640;11.756;2023-05-10T04:51:15;16.30;60.00
63017;DHT22;50274;45.640;11.756;2023-05-10T04:53:40;16.20;60.10
63017;DHT22;50274;45.640;11.756;2023-05-10T04:56:06;16.30;60.20
63017;DHT22;50274;45.640;11.756;2023-05-10T04:58:33;16.30;60.40
63017;DHT22;50274;45.640;11.756;2023-05-10T05:01:08;16.20;60.40
63017;DHT22;50274;45.640;11.756;2023-05-10T05:03:35;16.20;60.60
63017;DHT22;50274;45.640;11.756;2023-05-10T05:06:01;16.20;60.80
63017;DHT22;50274;45.640;11.756;2023-05-10T05:08:27;16.20;60.80
63017;DHT22;50274;45.640;11.756;2023-05-10T05:10:52;16.10;60.80
63017;DHT22;50274;45.640;11.756;2023-05-10T05:13:18;16.10;61.00
63017;DHT22;50274;45.640;11.756;2023-05-10T05:15:46;16.10;61.10
63017;DHT22;50274;45.640;11.756;2023-05-10T05:18:12;16.10;61.40
63017;DHT22;50274;45.640;11.756;2023-05-10T05:20:38;16.10;61.60
63017;DHT22;50274;45.640;11.756;2023-05-10T05:23:04;16.10;61.70
63017;DHT22;50274;45.640;11.756;2023-05-10T05:25:30;16.00;61.80
63017;DHT22;50274;45.640;11.756;2023-05-10T05:27:56;16.00;62.00
63017;DHT22;50274;45.640;11.756;2023-05-10T05:30:22;16.00;62.30
63017;DHT22;50274;45.640;11.756;2023-05-10T05:32:48;16.00;62.50
63017;DHT22;50274;45.640;11.756;2023-05-10T05:35:14;16.00;62.60
63017;DHT22;50274;45.640;11.756;2023-05-10T05:37:43;16.00;62.70
63017;DHT22;50274;45.640;11.756;2023-05-10T05:40:12;16.00;62.80
63017;DHT22;50274;45.640;11.756;2023-05-10T05:42:38;16.00;62.90
63017;DHT22;50274;45.640;11.756;2023-05-10T05:45:04;16.00;63.10
63017;DHT22;50274;45.640;11.756;2023-05-10T05:47:30;16.00;63.20
63017;DHT22;50274;45.640;11.756;2023-05-10T05:49:56;16.00;63.30
63017;DHT22;50274;45.640;11.756;2023-05-10T05:52:23;16.00;63.50
63017;DHT22;50274;45.640;11.756;2023-05-10T05:54:49;16.00;63.70
63017;DHT22;50274;45.640;11.756;2023-05-10T05:57:14;16.00;63.90
63017;DHT22;50274;45.640;11.756;2023-05-10T05:59:54;16.00;64.00
63017;DHT22;50274;45.640;11.756;2023-05-10T06:02:20;16.00;64.20
63017;DHT22;50274;45.640;11.756;2023-05-10T06:04:49;16.00;64.20
63017;DHT22;50274;45.640;11.756;2023-05-10T06:07:15;16.00;64.20
63017;DHT22;50274;45.640;11.756;2023-05-10T06:09:43;16.00;64.30
63017;DHT22;50274;45.640;11.756;2023-05-10T06:12:19;16.00;64.50
63017;DHT22;50274;45.640;11.756;2023-05-10T06:14:57;16.00;64.60
63017;DHT22;50274;45.640;11.756;2023-05-10T06:17:27;16.00;64.80
63017;DHT22;50274;45.640;11.756;2023-05-10T06:20:16;16.00;64.80
63017;DHT22;50274;45.640;11.756;2023-05-10T06:23:00;16.00;64.90
63017;DHT22;50274;45.640;11.756;2023-05-10T06:25:26;16.00;64.90
63017;DHT22;50274;45.640;11.756;2023-05-10T06:27:52;16.00;65.10
63017;DHT22;50274;45.640;11.756;2023-05-10T06:30:23;16.00;65.20
63017;DHT22;50274;45.640;11.756;2023-05-10T06:32:52;16.00;65.30
63017;DHT22;50274;45.640;11.756;2023-05-10T06:35:19;16.00;65.40
63017;DHT22;50274;45.640;11.756;2023-05-10T06:37:44;15.90;65.50
63017;DHT22;50274;45.640;11.756;2023-05-10T06:40:11;15.90;65.70
63017;DHT22;50274;45.640;11.756;2023-05-10T06:42:37;15.90;65.90
63017;DHT22;50274;45.640;11.756;2023-05-10T06:45:04;15.90;65.90
63017;DHT22;50274;45.640;11.756;2023-05-10T06:47:30;15.80;66.10
63017;DHT22;50274;45.640;11.756;2023-05-10T06:49:57;15.80;66.30
63017;DHT22;50274;45.640;11.756;2023-05-10T06:52:23;15.80;66.60
63017;DHT22;50274;45.640;11.756;2023-05-10T06:54:48;15.80;66.70
63017;DHT22;50274;45.640;11.756;2023-05-10T06:57:15;15.90;67.00
63017;DHT22;50274;45.640;11.756;2023-05-10T06:59:41;15.80;67.10
63017;DHT22;50274;45.640;11.756;2023-05-10T07:02:06;15.80;67.20
63017;DHT22;50274;45.640;11.756;2023-05-10T07:04:32;15.80;67.40
63017;DHT22;50274;45.640;11.756;2023-05-10T07:06:59;15.80;67.50
63017;DHT22;50274;45.640;11.756;2023-05-10T07:09:25;15.80;67.60
63017;DHT22;50274;45.640;11.756;2023-05-10T07:11:50;15.80;67.60
63017;DHT22;50274;45.640;11.756;2023-05-10T07:14:16;15.80;67.70
63017;DHT22;50274;45.640;11.756;2023-05-10T07:16:42;15.70;67.80
63017;DHT22;50274;45.640;11.756;2023-05-10T07:19:08;15.80;68.00
63017;DHT22;50274;45.640;11.756;2023-05-10T07:21:34;15.80;68.00
63017;DHT22;50274;45.640;11.756;2023-05-10T07:24:00;15.80;68.00
63017;DHT22;50274;45.640;11.756;2023-05-10T07:26:26;15.80;68.10
63017;DHT22;50274;45.640;11.756;2023-05-10T07:28:52;15.70;68.20
63017;DHT22;50274;45.640;11.756;2023-05-10T07:31:17;15.70;68.30
63017;DHT22;50274;45.640;11.756;2023-05-10T07:33:43;15.70;68.30
63017;DHT22;50274;45.640;11.756;2023-05-10T07:36:09;15.70;68.40
63017;DHT22;50274;45.640;11.756;2023-05-10T07:38:35;15.70;68.60
63017;DHT22;50274;45.640;11.756;2023-05-10T07:41:01;15.80;68.60
63017;DHT22;50274;45.640;11.756;2023-05-10T07:43:30;15.80;68.80
63017;DHT22;50274;45.640;11.756;2023-05-10T07:45:56;15.70;69.00
63017;DHT22;50274;45.640;11.756;2023-05-10T07:48:23;15.70;69.00
63017;DHT22;50274;45.640;11.756;2023-05-10T07:50:48;15.60;69.10
63017;DHT22;50274;45.640;11.756;2023-05-10T07:53:14;15.70;69.20
63017;DHT22;50274;45.640;11.756;2023-05-10T07:55:40;15.70;69.20
63017;DHT22;50274;45.640;11.756;2023-05-10T07:58:06;15.70;69.50
63017;DHT22;50274;45.640;11.756;2023-05-10T08:00:31;15.70;69.50
63017;DHT22;50274;45.640;11.756;2023-05-10T08:02:57;15.70;69.60
63017;DHT22;50274;45.640;11.756;2023-05-10T08:05:23;15.70;69.70
63017;DHT22;50274;45.640;11.756;2023-05-10T08:07:49;15.70;69.80
63017;DHT22;50274;45.640;11.756;2023-05-10T08:10:15;15.70;70.10
63017;DHT22;50274;45.640;11.756;2023-05-10T08:12:42;15.70;70.20
63017;DHT22;50274;45.640;11.756;2023-05-10T08:15:08;15.70;70.20
63017;DHT22;50274;45.640;11.756;2023-05-10T08:17:34;15.70;70.50
63017;DHT22;50274;45.640;11.756;2023-05-10T08:20:00;15.60;70.30
63017;DHT22;50274;45.640;11.756;2023-05-10T08:22:26;15.60;70.20
63017;DHT22;50274;45.640;11.756;2023-05-10T08:24:52;15.50;70.30
63017;DHT22;50274;45.640;11.756;2023-05-10T08:27:17;15.50;70.30
63017;DHT22;50274;45.640;11.756;2023-05-10T08:29:43;15.50;70.40
63017;DHT22;50274;45.640;11.756;2023-05-10T08:32:09;15.50;70.50
63017;DHT22;50274;45.640;11.756;2023-05-10T08:34:35;15.50;70.60
63017;DHT22;50274;45.640;11.756;2023-05-10T08:37:01;15.50;70.70
63017;DHT22;50274;45.640;11.756;2023-05-10T08:39:27;15.50;70.60
63017;DHT22;50274;45.640;11.756;2023-05-10T08:41:54;15.50;70.70
63017;DHT22;50274;45.640;11.756;2023-05-10T08:44:24;15.50;70.80
63017;DHT22;50274;45.640;11.756;2023-05-10T08:46:53;15.50;70.70
63017;DHT22;50274;45.640;11.756;2023-05-10T08:49:20;15.50;70.70
63017;DHT22;50274;45.640;11.756;2023-05-10T08:51:52;15.50;70.80
63017;DHT22;50274;45.640;11.756;2023-05-10T08:54:19;15.50;70.80
63017;DHT22;50274;45.640;11.756;2023-05-10T08:56:46;15.50;70.80
63017;DHT22;50274;45.640;11.756;2023-05-10T08:59:12;15.50;70.90
63017;DHT22;50274;45.640;11.756;2023-05-10T09:01:40;15.50;71.00
63017;DHT22;50274;45.640;11.756;2023-05-10T09:04:07;15.60;71.30
63017;DHT22;50274;45.640;11.756;2023-05-10T09:06:33;15.60;71.20
63017;DHT22;50274;45.640;11.756;2023-05-10T09:08:59;15.60;71.40
63017;DHT22;50274;45.640;11.756;2023-05-10T09:11:26;15.60;71.70
63017;DHT22;50274;45.640;11.756;2023-05-10T09:13:55;15.60;72.10
63017;DHT22;50274;45.640;11.756;2023-05-10T09:16:21;15.60;72.20
63017;DHT22;50274;45.640;11.756;2023-05-10T09:18:48;15.60;72.10
63017;DHT22;50274;45.640;11.756;2023-05-10T09:21:14;15.70;72.40
63017;DHT22;50274;45.640;11.756;2023-05-10T09:23:45;15.60;72.20
63017;DHT22;50274;45.640;11.756;2023-05-10T09:26:12;15.60;72.40
63017;DHT22;50274;45.640;11.756;2023-05-10T09:31:17;15.60;72.30
63017;DHT22;50274;45.640;11.756;2023-05-10T09:33:47;15.60;72.30
63017;DHT22;50274;45.640;11.756;2023-05-10T09:36:14;15.60;72.20
63017;DHT22;50274;45.640;11.756;2023-05-10T09:38:47;15.60;72.30
63017;DHT22;50274;45.640;11.756;2023-05-10T09:41:21;15.50;72.30
63017;DHT22;50274;45.640;11.756;2023-05-10T09:43:50;15.60;72.50
63017;DHT22;50274;45.640;11.756;2023-05-10T09:46:21;15.60;72.70
63017;DHT22;50274;45.640;11.756;2023-05-10T09:48:48;15.50;72.80
63017;DHT22;50274;45.640;11.756;2023-05-10T09:51:21;15.60;72.90
63017;DHT22;50274;45.640;11.756;2023-05-10T09:53:47;15.60;73.10
63017;DHT22;50274;45.640;11.756;2023-05-10T09:56:33;15.60;73.40
63017;DHT22;50274;45.640;11.756;2023-05-10T09:59:04;15.60;73.20
63017;DHT22;50274;45.640;11.756;2023-05-10T10:01:31;15.50;73.10
63017;DHT22;50274;45.640;11.756;2023-05-10T10:03:57;15.50;73.10
63017;DHT22;50274;45.640;11.756;2023-05-10T10:06:24;15.50;73.20
63017;DHT22;50274;45.640;11.756;2023-05-10T10:08:51;15.50;73.50
63017;DHT22;50274;45.640;11.756;2023-05-10T10:11:17;15.50;73.50
63017;DHT22;50274;45.640;11.756;2023-05-10T10:13:43;15.40;73.40
63017;DHT22;50274;45.640;11.756;2023-05-10T10:16:09;15.40;73.30
63017;DHT22;50274;45.640;11.756;2023-05-10T10:18:36;15.40;73.50
63017;DHT22;50274;45.640;11.756;2023-05-10T10:21:07;15.30;73.50
63017;DHT22;50274;45.640;11.756;2023-05-10T10:23:37;15.40;73.50
63017;DHT22;50274;45.640;11.756;2023-05-10T10:26:03;15.40;73.60
63017;DHT22;50274;45.640;11.756;2023-05-10T10:28:54;15.40;73.70
63017;DHT22;50274;45.640;11.756;2023-05-10T10:31:41;15.40;73.70
63017;DHT22;50274;45.640;11.756;2023-05-10T10:34:11;15.40;74.10
63017;DHT22;50274;45.640;11.756;2023-05-10T10:36:46;15.50;74.00
63017;DHT22;50274;45.640;11.756;2023-05-10T10:39:15;15.50;74.00
63017;DHT22;50274;45.640;11.756;2023-05-10T10:41:55;15.50;74.00
63017;DHT22;50274;45.640;11.756;2023-05-10T10:44:22;15.50;74.00
63017;DHT22;50274;45.640;11.756;2023-05-10T10:47:01;15.50;74.20
63017;DHT22;50274;45.640;11.756;2023-05-10T10:49:30;15.50;74.20
63017;DHT22;50274;45.640;11.756;2023-05-10T10:52:22;15.60;74.20
63017;DHT22;50274;45.640;11.756;2023-05-10T10:55:14;15.50;74.40
63017;DHT22;50274;45.640;11.756;2023-05-10T11:00:28;15.60;74.50
63017;DHT22;50274;45.640;11.756;2023-05-10T11:02:58;15.70;74.60
63017;DHT22;50274;45.640;11.756;2023-05-10T11:05:46;15.70;74.50
63017;DHT22;50274;45.640;11.756;2023-05-10T11:08:13;15.70;74.50
63017;DHT22;50274;45.640;11.756;2023-05-10T11:10:48;15.70;74.50
63017;DHT22;50274;45.640;11.756;2023-05-10T11:13:30;15.80;74.50
63017;DHT22;50274;45.640;11.756;2023-05-10T11:15:57;15.80;74.70
63017;DHT22;50274;45.640;11.756;2023-05-10T11:18:30;15.80;74.70
63017;DHT22;50274;45.640;11.756;2023-05-10T11:21:00;15.80;74.70
63017;DHT22;50274;45.640;11.756;2023-05-10T11:26:14;15.80;75.00
63017;DHT22;50274;45.640;11.756;2023-05-10T11:28:48;15.90;75.20
63017;DHT22;50274;45.640;11.756;2023-05-10T11:31:19;15.90;75.30
63017;DHT22;50274;45.640;11.756;2023-05-10T11:33:53;15.80;75.30
63017;DHT22;50274;45.640;11.756;2023-05-10T11:36:31;15.80;75.40
63017;DHT22;50274;45.640;11.756;2023-05-10T11:38:58;15.80;75.60
63017;DHT22;50274;45.640;11.756;2023-05-10T11:41:24;15.80;75.80
63017;DHT22;50274;45.640;11.756;2023-05-10T11:43:54;15.80;75.60
63017;DHT22;50274;45.640;11.756;2023-05-10T11:46:24;15.80;75.70
63017;DHT22;50274;45.640;11.756;2023-05-10T11:48:52;15.70;75.60
63017;DHT22;50274;45.640;11.756;2023-05-10T11:51:25;15.70;75.50
63017;DHT22;50274;45.640;11.756;2023-05-10T11:53:55;15.70;75.60
63017;DHT22;50274;45.640;11.756;2023-05-10T11:56:21;15.70;75.60
63017;DHT22;50274;45.640;11.756;2023-05-10T11:58:54;15.70;76.00
63017;DHT22;50274;45.640;11.756;2023-05-10T12:01:21;15.70;76.00
63017;DHT22;50274;45.640;11.756;2023-05-10T12:03:48;15.60;76.10
63017;DHT22;50274;45.640;11.756;2023-05-10T12:06:15;15.60;76.20
63017;DHT22;50274;45.640;11.756;2023-05-10T12:08:45;15.60;76.20
63017;DHT22;50274;45.640;11.756;2023-05-10T12:11:13;15.60;76.30
63017;DHT22;50274;45.640;11.756;2023-05-10T12:13:42;15.60;76.40
63017;DHT22;50274;45.640;11.756;2023-05-10T12:16:19;15.50;76.60
63017;DHT22;50274;45.640;11.756;2023-05-10T12:18:48;15.50;76.80
63017;DHT22;50274;45.640;11.756;2023-05-10T12:21:15;15.50;76.80
63017;DHT22;50274;45.640;11.756;2023-05-10T12:23:41;15.50;77.00
63017;DHT22;50274;45.640;11.756;2023-05-10T12:26:10;15.50;77.20
63017;DHT22;50274;45.640;11.756;2023-05-10T12:28:36;15.40;77.40
63017;DHT22;50274;45.640;11.756;2023-05-10T12:31:02;15.50;77.60
63017;DHT22;50274;45.640;11.756;2023-05-10T12:33:41;15.40;77.60
63017;DHT22;50274;45.640;11.756;2023-05-10T12:36:12;15.40;77.60
63017;DHT22;50274;45.640;11.756;2023-05-10T12:38:45;15.40;77.60
63017;DHT22;50274;45.640;11.756;2023-05-10T12:41:16;15.40;77.70
63017;DHT22;50274;45.640;11.756;2023-05-10T12:43:43;15.40;77.80
63017;DHT22;50274;45.640;11.756;2023-05-10T12:46:14;15.40;77.70
63017;DHT22;50274;45.640;11.756;2023-05-10T12:48:41;15.30;77.70
63017;DHT22;50274;45.640;11.756;2023-05-10T12:51:07;15.30;77.70
63017;DHT22;50274;45.640;11.756;2023-05-10T12:53:42;15.30;77.80
63017;DHT22;50274;45.640;11.756;2023-05-10T12:56:11;15.40;78.00
63017;DHT22;50274;45.640;11.756;2023-05-10T12:58:37;15.30;78.20
63017;DHT22;50274;45.640;11.756;2023-05-10T13:01:04;15.30;78.00
63017;DHT22;50274;45.640;11.756;2023-05-10T13:03:30;15.30;78.00
63017;DHT22;50274;45.640;11.756;2023-05-10T13:05:56;15.30;78.10
63017;DHT22;50274;45.640;11.756;2023-05-10T13:08:22;15.30;78.30
63017;DHT22;50274;45.640;11.756;2023-05-10T13:10:48;15.30;78.40
63017;DHT22;50274;45.640;11.756;2023-05-10T13:13:15;15.30;78.30
63017;DHT22;50274;45.640;11.756;2023-05-10T13:15:41;15.30;78.50
63017;DHT22;50274;45.640;11.756;2023-05-10T13:18:07;15.30;78.50
63017;DHT22;50274;45.640;11.756;2023-05-10T13:20:33;15.30;78.60
63017;DHT22;50274;45.640;11.756;2023-05-10T13:22:59;15.30;78.60
63017;DHT22;50274;45.640;11.756;2023-05-10T13:25:25;15.30;78.60
63017;DHT22;50274;45.640;11.756;2023-05-10T13:27:51;15.30;78.50
63017;DHT22;50274;45.640;11.756;2023-05-10T13:30:17;15.30;78.60
63017;DHT22;50274;45.640;11.756;2023-05-10T13:32:42;15.30;78.90
63017;DHT22;50274;45.640;11.756;2023-05-10T13:35:08;15.30;79.00
63017;DHT22;50274;45.640;11.756;2023-05-10T13:37:34;15.30;79.10
63017;DHT22;50274;45.640;11.756;2023-05-10T13:40:03;15.40;79.00
63017;DHT22;50274;45.640;11.756;2023-05-10T13:42:29;15.40;78.80
63017;DHT22;50274;45.640;11.756;2023-05-10T13:44:57;15.40;78.60
63017;DHT22;50274;45.640;11.756;2023-05-10T13:47:22;15.30;78.70
63017;DHT22;50274;45.640;11.756;2023-05-10T13:49:48;15.30;78.60
63017;DHT22;50274;45.640;11.756;2023-05-10T13:52:19;15.30;78.70
63017;DHT22;50274;45.640;11.756;2023-05-10T13:54:45;15.40;78.80
63017;DHT22;50274;45.640;11.756;2023-05-10T13:57:11;15.40;79.00
63017;DHT22;50274;45.640;11.756;2023-05-10T13:59:39;15.40;79.00
63017;DHT22;50274;45.640;11.756;2023-05-10T14:02:05;15.30;78.90
63017;DHT22;50274;45.640;11.756;2023-05-10T14:04:31;15.30;79.00
63017;DHT22;50274;45.640;11.756;2023-05-10T14:06:57;15.30;79.10
63017;DHT22;50274;45.640;11.756;2023-05-10T14:09:23;15.30;79.10
63017;DHT22;50274;45.640;11.756;2023-05-10T14:11:49;15.20;79.10
63017;DHT22;50274;45.640;11.756;2023-05-10T14:14:15;15.20;79.20
63017;DHT22;50274;45.640;11.756;2023-05-10T14:16:43;15.30;79.20
63017;DHT22;50274;45.640;11.756;2023-05-10T14:19:11;15.30;79.20
63017;DHT22;50274;45.640;11.756;2023-05-10T14:21:38;15.30;79.40
63017;DHT22;50274;45.640;11.756;2023-05-10T14:24:05;15.30;79.30
63017;DHT22;50274;45.640;11.756;2023-05-10T14:26:32;15.30;79.40
63017;DHT22;50274;45.640;11.756;2023-05-10T14:28:59;15.30;79.50
63017;DHT22;50274;45.640;11.756;2023-05-10T14:31:26;15.30;79.60
63017;DHT22;50274;45.640;11.756;2023-05-10T14:33:53;15.40;79.60
63017;DHT22;50274;45.640;11.756;2023-05-10T14:36:19;15.30;79.50
63017;DHT22;50274;45.640;11.756;2023-05-10T14:38:44;15.30;79.60
63017;DHT22;50274;45.640;11.756;2023-05-10T14:41:10;15.30;79.50
63017;DHT22;50274;45.640;11.756;2023-05-10T14:43:40;15.30;79.50
63017;DHT22;50274;45.640;11.756;2023-05-10T14:46:09;15.30;79.60
63017;DHT22;50274;45.640;11.756;2023-05-10T14:48:36;15.30;79.60
63017;DHT22;50274;45.640;11.756;2023-05-10T14:51:22;15.30;79.70
63017;DHT22;50274;45.640;11.756;2023-05-10T14:53:48;15.30;79.80
63017;DHT22;50274;45.640;11.756;2023-05-10T14:56:15;15.30;79.90
63017;DHT22;50274;45.640;11.756;2023-05-10T14:58:41;15.30;79.90
63017;DHT22;50274;45.640;11.756;2023-05-10T15:01:07;15.20;79.90
63017;DHT22;50274;45.640;11.756;2023-05-10T15:03:33;15.20;79.90
63017;DHT22;50274;45.640;11.756;2023-05-10T15:05:59;15.20;79.90
63017;DHT22;50274;45.640;11.756;2023-05-10T15:08:25;15.20;80.00
63017;DHT22;50274;45.640;11.756;2023-05-10T15:10:51;15.20;80.20
63017;DHT22;50274;45.640;11.756;2023-05-10T15:13:17;15.20;80.10
63017;DHT22;50274;45.640;11.756;2023-05-10T15:15:43;15.20;80.10
63017;DHT22;50274;45.640;11.756;2023-05-10T15:18:09;15.20;80.10
63017;DHT22;50274;45.640;11.756;2023-05-10T15:20:35;15.10;80.10
63017;DHT22;50274;45.640;11.756;2023-05-10T15:23:01;15.10;80.20
63017;DHT22;50274;45.640;11.756;2023-05-10T15:25:27;15.10;80.40
63017;DHT22;50274;45.640;11.756;2023-05-10T15:27:54;15.10;80.40
63017;DHT22;50274;45.640;11.756;2023-05-10T15:30:20;15.10;80.20
63017;DHT22;50274;45.640;11.756;2023-05-10T15:32:46;15.00;80.30
63017;DHT22;50274;45.640;11.756;2023-05-10T15:35:12;15.00;80.40
63017;DHT22;50274;45.640;11.756;2023-05-10T15:37:38;15.00;80.50
63017;DHT22;50274;45.640;11.756;2023-05-10T15:40:04;15.00;80.60
63017;DHT22;50274;45.640;11.756;2023-05-10T15:42:31;15.00;80.60
63017;DHT22;50274;45.640;11.756;2023-05-10T15:44:57;15.00;81.00
63017;DHT22;50274;45.640;11.756;2023-05-10T15:47:23;15.00;80.90